Time;durP1;ratioP1;P1;durP2;ratioP2;P2;SDS_P1;SDS_P2;PMS_P1;PMS_P2;Temp;Humidity;BMP_temperature;BMP_pressure;BME280_temperature;BME280_humidity;BME280_pressure;Samples;Min_cycle;Max_cycle;Signal;HPM_P1;HPM_P2
2022/10/09 00:00:47;;;;;;;;;14.75;10.75;;;;;14.42;46.51;101785.56;5082847;27;52673;-37
2022/10/09 00:03:13;;;;;;;;;13.75;12.75;;;;;14.40;47.12;101784.75;5092889;27;45289;-37
2022/10/09 00:05:39;;;;;;;;;10.25;9.75;;;;;14.37;46.92;101782.19;5091843;27;46424;-37
2022/10/09 00:08:04;;;;;;;;;12.25;10.75;;;;;14.37;47.14;101791.88;5090533;27;61198;-37
2022/10/09 00:10:30;;;;;;;;;12.00;10.75;;;;;14.33;46.74;101784.97;5100259;27;45389;-46
2022/10/09 00:12:55;;;;;;;;;11.75;9.00;;;;;14.32;46.80;101783.22;5098485;27;45625;-37
2022/10/09 00:15:21;;;;;;;;;15.25;10.25;;;;;14.31;46.68;101776.25;5075409;27;45410;-38
2022/10/09 00:17:47;;;;;;;;;11.50;10.00;;;;;14.31;46.94;101781.50;5099489;27;48161;-37
2022/10/09 00:20:12;;;;;;;;;11.25;10.00;;;;;14.30;47.28;101780.63;5092068;27;51160;-37
2022/10/09 00:22:38;;;;;;;;;14.50;10.75;;;;;14.28;46.80;101778.94;5094784;27;45989;-37
2022/10/09 00:25:04;;;;;;;;;13.25;10.75;;;;;14.23;47.29;101773.78;5078502;27;46943;-37
2022/10/09 00:27:29;;;;;;;;;14.25;11.00;;;;;14.20;47.38;101772.13;5099800;27;45494;-37
2022/10/09 00:29:55;;;;;;;;;14.75;11.75;;;;;14.19;47.25;101764.25;5086935;27;45304;-37
2022/10/09 00:32:20;;;;;;;;;12.75;10.50;;;;;14.18;47.29;101765.13;5088384;27;45471;-37
2022/10/09 00:34:46;;;;;;;;;15.25;12.25;;;;;14.15;47.02;101770.50;5070266;27;55071;-37
2022/10/09 00:37:11;;;;;;;;;18.25;11.00;;;;;14.15;47.12;101767.88;5076685;27;67010;-38
2022/10/09 00:39:36;;;;;;;;;14.00;12.50;;;;;14.15;47.52;101767.88;5097363;27;45456;-37
2022/10/09 00:42:03;;;;;;;;;44.75;32.75;;;;;14.12;47.68;101766.16;5099658;27;56447;-37
2022/10/09 00:44:49;;;;;;;;;15.50;11.00;;;;;14.10;47.16;101762.72;5086809;27;46198;-37
2022/10/09 00:47:45;;;;;;;;;13.50;10.25;;;;;14.08;46.96;101767.16;5086735;27;45693;-37
2022/10/09 00:50:23;;;;;;;;;15.75;12.75;;;;;14.02;47.81;101765.53;5079738;27;45405;-37
2022/10/09 00:52:52;;;;;;;;;15.75;12.75;;;;;13.95;48.17;101763.09;5078786;27;45335;-37
2022/10/09 00:55:18;;;;;;;;;15.00;12.75;;;;;13.89;47.64;101758.84;5091786;27;45344;-37
2022/10/09 00:57:44;;;;;;;;;15.50;11.25;;;;;13.87;47.94;101763.28;5093579;27;45339;-37
2022/10/09 01:00:12;;;;;;;;;13.00;12.00;;;;;13.86;47.41;101772.94;5076531;28;63108;-37
2022/10/09 01:02:37;;;;;;;;;16.00;13.00;;;;;13.86;47.42;101767.69;5081841;27;45372;-37
2022/10/09 01:05:03;;;;;;;;;14.00;10.50;;;;;13.85;47.61;101763.31;5095924;27;68888;-37
2022/10/09 01:07:57;;;;;;;;;11.75;11.25;;;;;13.84;48.11;101750.19;5078245;27;45974;-37
2022/10/09 01:10:29;;;;;;;;;10.50;7.50;;;;;13.84;47.70;101755.44;5072955;27;45474;-42
2022/10/09 01:13:07;;;;;;;;;14.50;12.00;;;;;13.83;48.16;101749.34;5068659;28;45403;-37
2022/10/09 01:15:47;;;;;;;;;15.00;12.25;;;;;13.83;48.09;101741.44;5066044;27;47362;-37
2022/10/09 01:18:41;;;;;;;;;16.25;13.25;;;;;13.82;47.74;101739.69;5083206;27;45401;-37
2022/10/09 01:21:11;;;;;;;;;18.50;13.00;;;;;13.80;48.26;101738.88;5097039;27;45318;-37
2022/10/09 01:23:53;;;;;;;;;13.75;13.00;;;;;13.79;47.92;101745.06;5102257;27;45511;-37
2022/10/09 01:26:19;;;;;;;;;18.50;13.50;;;;;13.78;48.02;101729.31;5079633;27;46321;-37
2022/10/09 01:28:46;;;;;;;;;15.00;13.33;;;;;13.74;48.01;101722.38;5094758;27;45275;-37
2022/10/09 01:31:13;;;;;;;;;15.25;12.50;;;;;13.71;47.82;101720.69;5081794;27;45277;-37
2022/10/09 01:33:39;;;;;;;;;13.25;12.00;;;;;13.71;48.29;101723.31;5099421;27;45413;-37
2022/10/09 01:36:06;;;;;;;;;15.25;14.25;;;;;13.65;48.35;101718.19;5102239;27;54948;-37
2022/10/09 01:38:33;;;;;;;;;16.50;12.75;;;;;13.62;48.12;101713.88;5083769;27;45354;-37
2022/10/09 01:41:01;;;;;;;;;10.25;9.50;;;;;13.63;48.14;101701.59;5080442;28;45359;-37
2022/10/09 01:43:26;;;;;;;;;15.00;12.75;;;;;13.62;48.24;101705.13;5093445;27;45343;-37
2022/10/09 01:45:52;;;;;;;;;18.00;12.50;;;;;13.62;48.19;101698.09;5098239;27;46164;-37
2022/10/09 01:48:23;;;;;;;;;18.50;15.00;;;;;13.61;48.33;101693.72;5076407;27;64605;-37
2022/10/09 01:50:55;;;;;;;;;16.50;14.50;;;;;13.61;48.73;101685.84;5099590;27;45313;-37
2022/10/09 01:53:22;;;;;;;;;9.50;8.75;;;;;13.59;48.32;101682.38;5100560;27;45481;-37
2022/10/09 01:55:54;;;;;;;;;12.50;12.25;;;;;13.58;48.48;101677.16;5101960;27;46713;-37
2022/10/09 01:58:32;;;;;;;;;14.00;13.00;;;;;13.57;48.63;101672.81;5076840;27;45355;-37
2022/10/09 02:01:07;;;;;;;;;19.50;14.75;;;;;13.58;48.66;101678.06;5098891;27;45488;-38
2022/10/09 02:03:34;;;;;;;;;15.75;11.25;;;;;13.57;48.68;101668.41;5100343;27;45512;-38
2022/10/09 02:06:01;;;;;;;;;13.00;10.75;;;;;13.54;49.08;101670.25;5081298;27;46582;-37
2022/10/09 02:08:28;;;;;;;;;18.50;12.50;;;;;13.50;48.77;101666.84;5071122;27;45349;-38
2022/10/09 02:10:55;;;;;;;;;18.00;13.00;;;;;13.47;49.15;101666.91;5083129;27;45522;-38
2022/10/09 02:13:21;;;;;;;;;15.75;11.00;;;;;13.46;49.30;101659.94;5099958;27;45634;-38
2022/10/09 02:16:04;;;;;;;;;19.50;13.00;;;;;13.45;49.31;101658.19;5095635;27;63832;-38
2022/10/09 02:18:45;;;;;;;;;13.50;11.00;;;;;13.43;49.49;101654.75;5095779;27;46065;-38
2022/10/09 02:21:28;;;;;;;;;11.00;8.25;;;;;13.40;49.38;101658.31;5059913;27;45422;-37
2022/10/09 02:23:54;;;;;;;;;12.00;10.50;;;;;13.39;49.48;101642.59;5094225;27;45508;-37
2022/10/09 02:26:19;;;;;;;;;9.25;9.25;;;;;13.38;49.05;101643.47;5092353;27;62557;-38
2022/10/09 02:28:45;;;;;;;;;13.50;9.75;;;;;13.37;48.98;101647.00;5085208;27;45387;-37
2022/10/09 02:31:17;;;;;;;;;10.50;9.00;;;;;13.36;49.25;101640.88;5069582;28;45411;-37
2022/10/09 02:33:43;;;;;;;;;11.50;10.00;;;;;13.37;49.37;101636.47;5095546;27;45472;-41
2022/10/09 02:36:08;;;;;;;;;11.00;11.00;;;;;13.39;49.40;101634.69;5090799;27;61600;-37
2022/10/09 02:38:34;;;;;;;;;12.50;10.00;;;;;13.37;49.56;101633.84;5095934;27;45330;-37
2022/10/09 02:41:00;;;;;;;;;4.50;3.00;;;;;13.34;49.70;101631.31;5090482;27;45486;-37
2022/10/09 02:43:27;;;;;;;;;12.50;9.75;;;;;13.30;49.67;101628.72;5094150;27;45268;-37
2022/10/09 02:45:52;;;;;;;;;16.00;10.75;;;;;13.31;49.11;101621.72;5066079;27;46998;-37
2022/10/09 02:48:17;;;;;;;;;13.75;13.50;;;;;13.27;49.58;101623.53;5097770;27;70098;-37
2022/10/09 02:50:43;;;;;;;;;15.00;12.50;;;;;13.26;49.33;101621.81;5099377;27;58663;-37
2022/10/09 02:53:08;;;;;;;;;11.25;9.00;;;;;13.23;49.35;101619.25;5097132;27;62370;-39
2022/10/09 02:55:35;;;;;;;;;15.75;12.25;;;;;13.23;49.68;101621.03;5101773;27;46373;-37
2022/10/09 02:58:00;;;;;;;;;16.00;12.75;;;;;13.24;49.81;101615.72;5100480;27;45711;-37
2022/10/09 03:00:25;;;;;;;;;13.50;11.25;;;;;13.26;49.26;101607.78;5099753;27;45600;-37
2022/10/09 03:02:51;;;;;;;;;19.00;11.25;;;;;13.26;49.66;101608.66;5099345;27;57814;-37
2022/10/09 03:05:16;;;;;;;;;15.00;11.00;;;;;13.25;49.54;101606.94;5098644;27;46899;-57
2022/10/09 03:07:49;;;;;;;;;16.50;11.00;;;;;13.23;49.94;101608.72;5099724;27;45370;-38
2022/10/09 03:10:14;;;;;;;;;11.50;11.00;;;;;13.20;49.97;101608.81;5099183;27;45388;-39
2022/10/09 03:12:39;;;;;;;;;14.00;10.25;;;;;13.18;49.68;101607.13;5081424;27;59125;-38
2022/10/09 03:15:05;;;;;;;;;18.25;10.75;;;;;13.15;49.48;101601.94;5082274;27;49051;-37
2022/10/09 03:17:31;;;;;;;;;12.50;11.75;;;;;13.14;49.56;101598.44;5094825;27;45834;-37
2022/10/09 03:19:56;;;;;;;;;12.25;8.75;;;;;13.14;49.81;101593.19;5099619;27;57326;-45
2022/10/09 03:22:21;;;;;;;;;14.25;11.50;;;;;13.13;49.59;101596.72;5099906;27;59990;-37
2022/10/09 03:24:47;;;;;;;;;12.50;10.00;;;;;13.11;49.80;101586.22;5100504;27;61097;-37
2022/10/09 03:27:12;;;;;;;;;12.00;11.00;;;;;13.10;50.08;101594.16;5095695;27;48305;-37
2022/10/09 03:29:37;;;;;;;;;13.25;11.25;;;;;13.06;50.22;101587.25;5107840;27;53142;-37
2022/10/09 03:32:03;;;;;;;;;13.75;11.00;;;;;13.02;50.17;101586.44;5098760;27;61030;-37
2022/10/09 03:34:28;;;;;;;;;12.75;10.50;;;;;12.99;49.86;101590.91;5089843;27;69972;-37
2022/10/09 03:36:53;;;;;;;;;14.75;8.50;;;;;12.96;50.06;101581.34;5098705;27;57230;-37
2022/10/09 03:39:19;;;;;;;;;11.75;9.75;;;;;12.98;49.91;101586.53;5082491;27;45281;-37
2022/10/09 03:41:44;;;;;;;;;12.25;8.50;;;;;12.96;50.21;101581.34;5097211;27;63605;-37
2022/10/09 03:44:09;;;;;;;;;10.75;9.00;;;;;12.93;50.35;101588.44;5094388;27;58973;-38
2022/10/09 03:46:35;;;;;;;;;11.25;9.25;;;;;12.87;50.01;101586.81;5093244;27;66230;-37
2022/10/09 03:49:00;;;;;;;;;12.00;8.50;;;;;12.85;49.90;101581.56;5097412;27;61864;-37
2022/10/09 03:51:26;;;;;;;;;11.75;9.00;;;;;12.84;50.67;101582.50;5099236;27;64201;-37
2022/10/09 03:53:51;;;;;;;;;9.75;9.00;;;;;12.83;50.54;101586.00;5098848;27;46089;-37
2022/10/09 03:56:16;;;;;;;;;9.00;8.25;;;;;12.81;50.44;101579.06;5098212;27;53826;-37
2022/10/09 03:58:42;;;;;;;;;8.50;8.00;;;;;12.80;50.32;101572.97;5094537;27;56460;-38
2022/10/09 04:01:07;;;;;;;;;12.75;8.00;;;;;12.80;50.23;101574.72;5095332;27;57555;-37
2022/10/09 04:03:32;;;;;;;;;11.00;8.50;;;;;12.79;50.59;101578.25;5098804;27;46179;-38
2022/10/09 04:05:58;;;;;;;;;11.25;8.75;;;;;12.76;50.75;101570.44;5099103;27;65500;-36
2022/10/09 04:08:24;;;;;;;;;10.25;7.75;;;;;12.75;50.28;101573.94;5061517;28;45320;-38
2022/10/09 04:10:56;;;;;;;;;10.00;7.00;;;;;12.74;50.52;101570.47;5079960;27;45684;-41
2022/10/09 04:13:21;;;;;;;;;10.00;8.00;;;;;12.75;50.49;101571.31;5081464;27;46997;-37
2022/10/09 04:15:51;;;;;;;;;9.00;9.00;;;;;12.77;50.68;101572.19;5096565;27;66000;-37
2022/10/09 04:18:16;;;;;;;;;8.75;8.50;;;;;12.77;50.47;101573.03;5096235;27;45472;-37
2022/10/09 04:20:49;;;;;;;;;8.50;8.50;;;;;12.77;50.55;101567.78;5096770;27;45390;-37
2022/10/09 04:23:15;;;;;;;;;11.00;8.75;;;;;12.76;50.66;101571.28;5099334;27;45440;-37
2022/10/09 04:25:40;;;;;;;;;8.25;6.00;;;;;12.73;50.82;101571.38;5079031;27;45677;-37
2022/10/09 04:28:06;;;;;;;;;11.50;8.25;;;;;12.69;50.68;101567.94;5085704;27;62186;-37
2022/10/09 04:30:31;;;;;;;;;8.75;6.00;;;;;12.65;50.78;101571.53;5093114;27;67055;-37
2022/10/09 04:32:56;;;;;;;;;11.00;7.00;;;;;12.60;51.29;101567.28;5095927;27;45796;-37
2022/10/09 04:35:22;;;;;;;;;11.00;7.00;;;;;12.52;51.08;101568.31;5092845;27;66337;-37
2022/10/09 04:37:47;;;;;;;;;10.00;7.75;;;;;12.48;50.99;101564.03;5101208;27;56627;-37
2022/10/09 04:40:12;;;;;;;;;9.50;6.75;;;;;12.48;50.65;101566.66;5095002;27;62474;-37
2022/10/09 04:42:38;;;;;;;;;9.00;8.00;;;;;12.44;51.28;101562.34;5095671;27;56034;-37
2022/10/09 04:45:03;;;;;;;;;6.00;5.00;;;;;12.41;51.40;101572.06;5094676;27;45317;-37
2022/10/09 04:47:29;;;;;;;;;6.00;6.00;;;;;12.39;51.39;101568.59;5097547;27;46252;-37
2022/10/09 04:49:55;;;;;;;;;10.75;7.75;;;;;12.36;51.42;101564.31;5096019;27;45499;-36
2022/10/09 04:52:20;;;;;;;;;9.75;8.00;;;;;12.32;51.17;101562.63;5100008;27;64575;-36
2022/10/09 04:54:45;;;;;;;;;10.25;6.50;;;;;12.32;51.33;101563.50;5080766;28;65522;-36
2022/10/09 04:57:11;;;;;;;;;9.75;6.25;;;;;12.31;51.76;101561.75;5063553;27;45327;-37
2022/10/09 04:59:36;;;;;;;;;6.50;6.00;;;;;12.25;51.66;101556.66;5102873;27;56909;-37
2022/10/09 05:02:02;;;;;;;;;13.50;6.00;;;;;12.22;51.19;101553.22;5061550;28;46053;-37
2022/10/09 05:04:27;;;;;;;;;8.50;7.00;;;;;12.19;51.42;101550.66;5100446;27;45320;-37
2022/10/09 05:06:53;;;;;;;;;9.75;6.75;;;;;12.11;51.57;101546.44;5091752;27;45856;-38
2022/10/09 05:09:18;;;;;;;;;7.00;6.75;;;;;12.06;51.67;101540.41;5097122;27;45515;-37
2022/10/09 05:11:43;;;;;;;;;5.00;5.00;;;;;12.00;51.86;101544.91;5080941;28;45786;-44
2022/10/09 05:14:09;;;;;;;;;9.50;6.00;;;;;11.94;52.27;101543.28;5102065;27;45243;-37
2022/10/09 05:16:35;;;;;;;;;8.25;5.75;;;;;11.88;52.19;101540.72;5084957;27;45350;-37
2022/10/09 05:19:00;;;;;;;;;9.25;6.25;;;;;11.82;52.05;101535.63;5098577;27;66115;-42
2022/10/09 05:21:27;;;;;;;;;6.25;6.25;;;;;11.78;52.11;101527.81;5080826;28;45978;-37
2022/10/09 05:23:53;;;;;;;;;7.75;6.00;;;;;11.75;52.26;101538.34;5097419;27;45808;-37
2022/10/09 05:26:21;;;;;;;;;9.00;5.00;;;;;11.71;52.16;101531.44;5092810;27;45522;-37
2022/10/09 05:28:46;;;;;;;;;8.00;6.50;;;;;11.67;52.24;101537.63;5097316;27;45442;-37
2022/10/09 05:31:19;;;;;;;;;7.50;5.00;;;;;11.65;52.58;101536.81;5101870;27;66804;-37
2022/10/09 05:33:45;;;;;;;;;6.50;6.50;;;;;11.62;52.77;101522.91;5098611;27;45293;-37
2022/10/09 05:36:10;;;;;;;;;9.75;6.50;;;;;11.59;52.43;101521.19;5088747;27;46791;-37
2022/10/09 05:38:36;;;;;;;;;6.25;6.00;;;;;11.58;52.29;101532.56;5092515;27;68024;-37
2022/10/09 05:41:03;;;;;;;;;7.00;6.00;;;;;11.56;52.65;101535.22;5096757;27;45675;-37
2022/10/09 05:43:32;;;;;;;;;5.75;5.00;;;;;11.52;52.84;101533.53;5093767;27;45289;-37
2022/10/09 05:46:17;;;;;;;;;6.25;6.00;;;;;11.49;52.41;101530.09;5096925;27;45381;-37
2022/10/09 05:48:44;;;;;;;;;6.50;5.75;;;;;11.48;52.67;101520.53;5097490;27;45331;-36
2022/10/09 05:51:18;;;;;;;;;7.75;5.75;;;;;11.43;52.82;101525.84;5095480;27;45377;-36
2022/10/09 05:53:45;;;;;;;;;8.25;4.50;;;;;11.38;52.80;101525.94;5063996;27;45723;-37
2022/10/09 05:56:19;;;;;;;;;6.75;5.50;;;;;11.37;52.81;101523.34;5072720;27;45339;-37
2022/10/09 05:58:49;;;;;;;;;3.50;2.00;;;;;11.36;52.89;101519.81;5096007;27;45505;-37
2022/10/09 06:01:15;;;;;;;;;7.25;5.00;;;;;11.37;53.13;101516.31;5094978;27;45305;-37
2022/10/09 06:03:40;;;;;;;;;8.25;7.00;;;;;11.40;52.98;101515.41;5097402;27;45461;-37
2022/10/09 06:06:07;;;;;;;;;7.75;6.00;;;;;11.44;52.94;101516.19;5094250;27;45809;-37
2022/10/09 06:08:36;;;;;;;;;8.50;5.00;;;;;11.48;52.69;101512.66;5079047;27;45456;-36
2022/10/09 06:11:14;;;;;;;;;8.00;5.00;;;;;11.53;52.59;101521.31;5098611;27;45434;-37
2022/10/09 06:13:41;;;;;;;;;11.25;8.00;;;;;11.57;52.81;101512.47;5084848;27;45713;-38
2022/10/09 06:16:07;;;;;;;;;8.00;6.00;;;;;11.58;52.70;101509.84;5100952;27;45495;-37
2022/10/09 06:18:32;;;;;;;;;7.00;6.00;;;;;11.61;52.67;101508.91;5094480;27;45526;-37
2022/10/09 06:20:59;;;;;;;;;6.25;6.25;;;;;11.65;52.44;101507.09;5096328;27;45868;-37
2022/10/09 06:23:25;;;;;;;;;9.25;7.00;;;;;11.66;52.58;101506.19;5079895;28;45867;-36
2022/10/09 06:26:10;;;;;;;;;8.25;6.25;;;;;11.68;52.29;101509.66;5097727;27;45678;-36
2022/10/09 06:28:35;;;;;;;;;7.25;6.50;;;;;11.70;52.44;101513.97;5091211;27;45312;-37
2022/10/09 06:31:07;;;;;;;;;8.25;7.75;;;;;11.72;52.27;101504.34;5098543;27;66930;-37
2022/10/09 06:33:34;;;;;;;;;9.75;7.25;;;;;11.75;52.42;101503.41;5093153;27;45371;-36
2022/10/09 06:36:07;;;;;;;;;10.00;8.00;;;;;11.72;52.77;101506.06;5099760;27;45534;-36
2022/10/09 06:38:33;;;;;;;;;9.75;6.75;;;;;11.71;52.55;101507.84;5087473;27;45515;-36
2022/10/09 06:41:10;;;;;;;;;6.50;5.75;;;;;11.73;52.47;101497.31;5094863;27;45494;-37
2022/10/09 06:43:37;;;;;;;;;7.75;5.00;;;;;11.75;52.49;101498.16;5102111;27;45454;-37
2022/10/09 06:46:04;;;;;;;;;7.25;6.25;;;;;11.75;52.36;101501.63;5082604;27;45329;-37
2022/10/09 06:48:31;;;;;;;;;9.00;6.50;;;;;11.78;52.36;101503.34;5093787;27;46911;-37
2022/10/09 06:51:07;;;;;;;;;8.00;7.00;;;;;11.82;51.93;101504.16;5090278;27;46235;-37
2022/10/09 06:53:37;;;;;;;;;10.00;7.00;;;;;11.81;52.11;101505.91;5097084;27;45418;-37
2022/10/09 06:56:02;;;;;;;;;7.00;7.00;;;;;11.83;52.12;101506.75;5098833;27;45533;-37
2022/10/09 06:58:28;;;;;;;;;7.00;6.25;;;;;11.86;52.04;101504.03;5100275;27;45229;-37
2022/10/09 07:01:08;;;;;;;;;14.00;6.75;;;;;11.89;52.03;101503.13;5095976;27;57620;-37
2022/10/09 07:03:35;;;;;;;;;8.00;7.00;;;;;11.90;52.15;101507.50;5098130;27;45852;-37
2022/10/09 07:06:12;;;;;;;;;8.25;6.00;;;;;11.90;51.98;101505.75;5092540;27;45185;-37
2022/10/09 07:08:40;;;;;;;;;5.00;5.00;;;;;11.90;52.11;101497.88;5081539;27;45384;-37
2022/10/09 07:11:15;;;;;;;;;7.75;6.00;;;;;11.94;52.26;101498.69;5096622;27;46014;-37
2022/10/09 07:13:41;;;;;;;;;9.50;7.00;;;;;11.95;52.13;101498.66;5099774;27;45917;-37
2022/10/09 07:16:07;;;;;;;;;7.00;6.00;;;;;11.94;52.00;101491.69;5092318;27;45518;-37
2022/10/09 07:18:34;;;;;;;;;7.25;7.25;;;;;11.88;52.31;101480.41;5099192;27;45441;-37
2022/10/09 07:21:01;;;;;;;;;10.50;7.25;;;;;11.96;51.97;101487.25;5100393;27;46186;-37
2022/10/09 07:23:28;;;;;;;;;8.25;7.00;;;;;12.01;51.88;101492.41;5101225;27;45255;-37
2022/10/09 07:25:53;;;;;;;;;6.00;6.00;;;;;12.03;51.92;101488.00;5092073;27;45294;-37
2022/10/09 07:28:18;;;;;;;;;8.75;7.50;;;;;12.06;52.13;101489.72;5094291;27;70454;-37
2022/10/09 07:30:44;;;;;;;;;8.75;6.00;;;;;12.08;51.95;101485.28;5091051;27;66041;-37
2022/10/09 07:33:09;;;;;;;;;8.50;6.50;;;;;12.10;52.28;101492.22;5096317;27;67954;-37
2022/10/09 07:35:34;;;;;;;;;11.25;10.00;;;;;12.12;51.88;101492.19;5099720;27;62591;-37
2022/10/09 07:38:00;;;;;;;;;10.00;7.75;;;;;12.13;51.92;101489.53;5097439;27;50972;-37
2022/10/09 07:40:25;;;;;;;;;9.00;7.25;;;;;12.14;51.94;101486.00;5095553;27;55626;-37
2022/10/09 07:42:50;;;;;;;;;10.25;7.25;;;;;12.16;52.06;101485.97;5093464;27;45430;-37
2022/10/09 07:45:16;;;;;;;;;12.75;9.00;;;;;12.17;51.81;101479.84;5108195;27;46189;-37
2022/10/09 07:47:41;;;;;;;;;13.00;7.50;;;;;12.18;51.87;101480.69;5098715;27;49269;-37
2022/10/09 07:50:06;;;;;;;;;11.75;8.75;;;;;12.20;51.83;101477.16;5100055;27;54250;-37
2022/10/09 07:52:32;;;;;;;;;6.25;6.25;;;;;12.22;51.94;101477.13;5097534;27;45276;-37
2022/10/09 07:54:57;;;;;;;;;13.00;9.25;;;;;12.25;51.94;101471.78;5084712;27;66945;-38
2022/10/09 07:57:22;;;;;;;;;8.00;7.50;;;;;12.29;51.69;101473.47;5067790;27;59670;-38
2022/10/09 07:59:48;;;;;;;;;12.25;10.50;;;;;12.35;51.57;101474.16;5087168;27;45519;-38
2022/10/09 08:02:13;;;;;;;;;14.00;10.50;;;;;12.41;51.59;101467.94;5077536;28;64879;-38
2022/10/09 08:04:38;;;;;;;;;9.75;9.00;;;;;12.47;51.77;101470.41;5073672;27;48789;-37
2022/10/09 08:07:04;;;;;;;;;12.00;10.00;;;;;12.55;51.55;101462.34;5089230;27;46724;-37
2022/10/09 08:09:29;;;;;;;;;12.50;9.00;;;;;12.60;51.14;101459.63;5095363;27;46172;-42
2022/10/09 08:11:54;;;;;;;;;9.75;8.75;;;;;12.63;51.40;101451.69;5091907;27;45364;-38
2022/10/09 08:14:20;;;;;;;;;10.00;8.00;;;;;12.69;51.39;101456.78;5089336;27;45710;-38
2022/10/09 08:16:46;;;;;;;;;12.50;9.75;;;;;12.76;51.34;101449.63;5096025;27;45525;-37
2022/10/09 08:19:11;;;;;;;;;11.00;9.00;;;;;12.82;51.37;101452.97;5076224;27;45570;-39
2022/10/09 08:21:37;;;;;;;;;11.25;10.25;;;;;12.91;51.20;101465.84;5074884;27;52883;-42
2022/10/09 08:24:02;;;;;;;;;9.00;8.00;;;;;12.98;51.01;101458.69;5087245;27;54508;-39
2022/10/09 08:26:29;;;;;;;;;13.75;11.75;;;;;13.04;50.81;101455.03;5068163;27;45190;-39
2022/10/09 08:28:59;;;;;;;;;15.25;12.75;;;;;13.10;50.93;101447.88;5075538;27;47355;-38
2022/10/09 08:31:26;;;;;;;;;15.75;13.00;;;;;13.17;51.14;101450.31;5088827;27;45482;-39
2022/10/09 08:33:52;;;;;;;;;17.00;13.00;;;;;13.22;50.95;101443.19;5073901;27;45506;-38
2022/10/09 08:36:18;;;;;;;;;12.50;12.25;;;;;13.28;50.86;101437.78;5077657;28;45512;-39
2022/10/09 08:38:43;;;;;;;;;14.75;12.00;;;;;13.35;50.52;101443.72;5091481;27;45290;-38
2022/10/09 08:41:36;;;;;;;;;15.25;10.50;;;;;13.43;50.83;101439.16;5099730;27;53566;-38
2022/10/09 08:44:12;;;;;;;;;14.00;11.00;;;;;13.49;50.54;101436.31;5052055;27;45233;-38
2022/10/09 08:47:16;;;;;;;;;13.25;11.75;;;;;13.58;50.63;101438.72;5090500;27;45365;-38
2022/10/09 08:50:04;;;;;;;;;15.50;11.50;;;;;13.65;50.48;101434.13;5078227;27;47173;-38
2022/10/09 08:52:46;;;;;;;;;14.50;12.00;;;;;13.72;50.33;101427.78;5092084;27;46218;-38
2022/10/09 08:55:25;;;;;;;;;14.00;11.00;;;;;13.79;50.28;101428.47;5098709;27;45282;-38
2022/10/09 08:57:53;;;;;;;;;13.00;10.75;;;;;13.85;50.40;101423.06;5077422;27;45521;-39
2022/10/09 09:00:24;;;;;;;;;13.00;12.00;;;;;13.92;50.41;101421.97;5097725;27;46184;-39
2022/10/09 09:03:07;;;;;;;;;11.75;11.25;;;;;13.99;50.35;101422.63;5066114;27;45318;-38
2022/10/09 09:05:45;;;;;;;;;10.50;10.25;;;;;14.05;49.83;101409.28;5094011;27;45580;-40
2022/10/09 09:08:16;;;;;;;;;12.00;11.00;;;;;14.11;49.80;101411.75;5076752;27;45478;-39
2022/10/09 09:10:51;;;;;;;;;14.25;10.75;;;;;14.17;50.25;101406.28;5092365;27;46083;-39
2022/10/09 09:13:46;;;;;;;;;12.75;11.25;;;;;14.24;50.15;101399.91;5094300;27;45764;-39
2022/10/09 09:16:30;;;;;;;;;8.50;8.00;;;;;14.32;50.01;101397.00;5050708;27;45441;-39
2022/10/09 09:19:14;;;;;;;;;11.50;9.00;;;;;14.39;49.98;101395.06;5074525;27;45547;-39
2022/10/09 09:21:52;;;;;;;;;12.00;8.50;;;;;14.45;49.54;101392.22;5088081;27;46784;-39
2022/10/09 09:24:30;;;;;;;;;7.25;6.25;;;;;14.53;49.92;101381.44;5082748;27;45681;-39
2022/10/09 09:27:01;;;;;;;;;7.75;7.25;;;;;14.59;49.42;101379.50;5054627;27;46590;-39
2022/10/09 09:29:28;;;;;;;;;8.00;8.00;;;;;14.67;49.39;101376.59;5072356;27;45312;-38
2022/10/09 09:31:57;;;;;;;;;13.25;10.00;;;;;14.75;49.79;101373.69;5093062;27;45291;-38
2022/10/09 09:34:28;;;;;;;;;13.75;11.75;;;;;14.84;49.12;101368.13;5070470;27;45425;-38
2022/10/09 09:36:56;;;;;;;;;24.25;17.50;;;;;14.93;49.28;101369.59;5097463;27;45460;-37
2022/10/09 09:39:24;;;;;;;;;9.50;7.50;;;;;14.99;49.29;101370.22;5067093;27;45485;-38
2022/10/09 09:41:49;;;;;;;;;8.00;6.25;;;;;15.06;49.04;101359.47;5070246;27;45620;-38
2022/10/09 09:44:16;;;;;;;;;14.00;8.00;;;;;15.09;49.01;101360.22;5081945;27;59666;-38
2022/10/09 09:46:43;;;;;;;;;9.25;8.00;;;;;15.18;49.23;101357.25;5094238;27;45472;-38
2022/10/09 09:49:20;;;;;;;;;7.25;6.50;;;;;15.25;48.71;101368.44;5068012;27;45452;-38
2022/10/09 09:51:47;;;;;;;;;4.75;4.50;;;;;15.29;48.86;101356.00;5089405;27;46492;-38
2022/10/09 09:54:22;;;;;;;;;4.00;3.25;;;;;15.32;48.56;101358.53;5071603;28;45465;-38
2022/10/09 09:56:48;;;;;;;;;9.00;5.75;;;;;15.34;48.50;101348.78;5101251;27;45478;-43
2022/10/09 09:59:36;;;;;;;;;9.00;5.75;;;;;15.38;48.90;101355.66;5063723;27;45419;-45
2022/10/09 10:02:11;;;;;;;;;4.25;4.25;;;;;15.42;48.64;101346.69;5101949;27;46552;-38
2022/10/09 10:04:37;;;;;;;;;12.75;7.00;;;;;15.47;48.70;101342.09;5077279;27;45514;-38
2022/10/09 10:07:04;;;;;;;;;5.00;4.25;;;;;15.56;48.59;101335.63;5081373;27;45422;-43
2022/10/09 10:09:30;;;;;;;;;6.75;5.75;;;;;15.62;48.37;101338.03;5090001;27;45527;-39
2022/10/09 10:11:58;;;;;;;;;6.25;4.25;;;;;15.68;48.60;101331.66;5094125;27;45584;-39
2022/10/09 10:14:25;;;;;;;;;6.75;5.75;;;;;15.71;48.40;101329.75;5088520;27;46051;-39
2022/10/09 10:16:52;;;;;;;;;5.00;4.75;;;;;15.77;48.16;101315.50;5072617;27;45801;-43
2022/10/09 10:19:24;;;;;;;;;8.75;8.25;;;;;15.85;48.40;101317.84;5081824;27;45391;-43
2022/10/09 10:21:59;;;;;;;;;7.00;5.00;;;;;15.89;48.25;101301.81;5075617;27;46207;-42
2022/10/09 10:24:33;;;;;;;;;6.00;6.00;;;;;15.97;48.14;101300.66;5079139;27;45971;-40
2022/10/09 10:27:04;;;;;;;;;0.00;0.00;;;;;16.04;47.89;101300.34;5076158;28;45504;-39
2022/10/09 10:29:36;;;;;;;;;8.75;7.00;;;;;16.11;48.27;101300.94;5073708;27;45524;-39
2022/10/09 10:32:31;;;;;;;;;6.00;5.75;;;;;16.19;47.66;101295.38;5079181;27;46150;-39
2022/10/09 10:35:05;;;;;;;;;6.50;4.50;;;;;16.26;47.81;101289.75;5069437;27;45615;-39
2022/10/09 10:37:51;;;;;;;;;15.00;10.25;;;;;16.35;47.60;101285.00;5080522;27;45565;-39
2022/10/09 10:40:30;;;;;;;;;15.50;10.50;;;;;16.40;47.79;101288.31;5088820;27;45593;-40
2022/10/09 10:43:08;;;;;;;;;7.50;4.25;;;;;16.45;47.26;101278.38;5086651;27;46245;-39
2022/10/09 10:45:33;;;;;;;;;4.00;3.75;;;;;16.51;47.38;101283.44;5094574;27;45891;-39
2022/10/09 10:48:00;;;;;;;;;6.33;3.33;;;;;16.55;47.40;101273.59;5077477;27;45517;-39
2022/10/09 10:50:33;;;;;;;;;6.75;4.75;;;;;16.61;46.97;101273.28;5075261;27;45447;-40
2022/10/09 10:53:36;;;;;;;;;7.25;5.00;;;;;16.65;47.31;101273.13;5096249;27;46609;-39
2022/10/09 10:56:35;;;;;;;;;4.25;4.25;;;;;16.70;46.96;101255.28;5094916;27;45937;-39
2022/10/09 10:59:19;;;;;;;;;5.25;4.00;;;;;16.78;46.93;101252.28;5073286;27;45522;-39
2022/10/09 11:02:03;;;;;;;;;4.00;4.00;;;;;16.80;46.79;101247.81;5083326;27;46821;-47
2022/10/09 11:04:40;;;;;;;;;5.50;4.00;;;;;16.84;46.27;101237.97;5094746;27;45439;-43
2022/10/09 11:07:12;;;;;;;;;5.00;3.25;;;;;16.88;46.76;101236.91;5090181;27;45772;-44
2022/10/09 11:10:14;;;;;;;;;5.25;5.00;;;;;16.95;46.92;101233.06;5080997;27;45400;-44
2022/10/09 11:12:51;;;;;;;;;8.25;7.00;;;;;17.01;46.25;101232.75;5080020;27;45281;-42
2022/10/09 11:15:44;;;;;;;;;5.00;2.50;;;;;17.06;46.23;101227.28;5081712;27;46348;-39
2022/10/09 11:18:43;;;;;;;;;4.25;3.00;;;;;17.09;46.10;101227.13;5096461;27;45477;-43
2022/10/09 11:21:29;;;;;;;;;3.75;3.50;;;;;17.15;46.26;101215.41;5080141;27;45430;-42
2022/10/09 11:24:44;;;;;;;;;3.50;3.00;;;;;17.21;46.44;101210.69;5090812;27;45486;-43
2022/10/09 11:27:23;;;;;;;;;5.50;4.25;;;;;17.29;46.26;101209.47;5002766;27;45437;-43
2022/10/09 11:29:54;;;;;;;;;6.25;4.50;;;;;17.35;46.08;101206.53;5087443;27;45309;-44